sensor_id;sensor_type;location;lat;lon;timestamp;P1;durP1;ratioP1;P2;durP2;ratioP2
63900;SDS011;50538;53.482;10.294;2023-07-31T00:01:33;0.98;;;0.63;;
63900;SDS011;50538;53.482;10.294;2023-07-31T00:11:33;0.75;;;0.57;;
63900;SDS011;50538;53.482;10.294;2023-07-31T00:21:33;4.18;;;1.23;;
63900;SDS011;50538;53.482;10.294;2023-07-31T00:31:34;1.70;;;0.60;;
63900;SDS011;50538;53.482;10.294;2023-07-31T00:41:34;1.95;;;0.88;;
63900;SDS011;50538;53.482;10.294;2023-07-31T00:51:35;1.73;;;0.68;;
63900;SDS011;50538;53.482;10.294;2023-07-31T01:01:35;1.23;;;0.70;;
63900;SDS011;50538;53.482;10.294;2023-07-31T01:11:42;2.97;;;0.70;;
63900;SDS011;50538;53.482;10.294;2023-07-31T01:21:58;1.17;;;0.50;;
63900;SDS011;50538;53.482;10.294;2023-07-31T01:32:23;1.00;;;0.75;;
63900;SDS011;50538;53.482;10.294;2023-07-31T01:42:28;1.42;;;0.60;;
63900;SDS011;50538;53.482;10.294;2023-07-31T01:52:28;1.70;;;0.80;;
63900;SDS011;50538;53.482;10.294;2023-07-31T02:02:30;1.52;;;0.55;;
63900;SDS011;50538;53.482;10.294;2023-07-31T02:12:30;5.68;;;0.77;;
63900;SDS011;50538;53.482;10.294;2023-07-31T02:22:32;1.38;;;0.70;;
63900;SDS011;50538;53.482;10.294;2023-07-31T02:32:32;3.67;;;0.85;;
63900;SDS011;50538;53.482;10.294;2023-07-31T02:42:32;1.63;;;0.60;;
63900;SDS011;50538;53.482;10.294;2023-07-31T02:52:33;2.42;;;0.57;;
63900;SDS011;50538;53.482;10.294;2023-07-31T03:02:33;1.13;;;0.70;;
63900;SDS011;50538;53.482;10.294;2023-07-31T03:12:34;3.67;;;0.80;;
63900;SDS011;50538;53.482;10.294;2023-07-31T03:22:34;3.78;;;0.80;;
63900;SDS011;50538;53.482;10.294;2023-07-31T03:32:35;4.37;;;0.90;;
63900;SDS011;50538;53.482;10.294;2023-07-31T03:42:35;2.20;;;0.80;;
63900;SDS011;50538;53.482;10.294;2023-07-31T03:52:36;2.33;;;1.02;;
63900;SDS011;50538;53.482;10.294;2023-07-31T04:02:36;4.97;;;1.35;;
63900;SDS011;50538;53.482;10.294;2023-07-31T04:12:36;3.15;;;1.10;;
63900;SDS011;50538;53.482;10.294;2023-07-31T04:22:37;3.60;;;1.58;;
63900;SDS011;50538;53.482;10.294;2023-07-31T04:32:37;2.30;;;1.25;;
63900;SDS011;50538;53.482;10.294;2023-07-31T04:42:37;2.65;;;1.33;;
63900;SDS011;50538;53.482;10.294;2023-07-31T04:52:38;2.50;;;1.27;;
63900;SDS011;50538;53.482;10.294;2023-07-31T05:02:38;2.72;;;1.20;;
63900;SDS011;50538;53.482;10.294;2023-07-31T05:12:38;1.27;;;1.02;;
63900;SDS011;50538;53.482;10.294;2023-07-31T05:22:39;5.57;;;1.30;;
63900;SDS011;50538;53.482;10.294;2023-07-31T05:32:39;2.35;;;1.20;;
63900;SDS011;50538;53.482;10.294;2023-07-31T05:42:40;3.20;;;1.20;;
63900;SDS011;50538;53.482;10.294;2023-07-31T05:52:40;1.63;;;0.88;;
63900;SDS011;50538;53.482;10.294;2023-07-31T06:02:40;2.40;;;1.02;;
63900;SDS011;50538;53.482;10.294;2023-07-31T06:12:41;2.92;;;1.15;;
63900;SDS011;50538;53.482;10.294;2023-07-31T06:22:41;1.45;;;0.82;;
63900;SDS011;50538;53.482;10.294;2023-07-31T06:32:41;1.65;;;1.00;;
63900;SDS011;50538;53.482;10.294;2023-07-31T06:42:42;2.30;;;0.93;;
63900;SDS011;50538;53.482;10.294;2023-07-31T06:52:43;5.40;;;1.08;;
63900;SDS011;50538;53.482;10.294;2023-07-31T07:02:43;2.60;;;0.90;;
63900;SDS011;50538;53.482;10.294;2023-07-31T07:12:44;1.40;;;0.80;;
63900;SDS011;50538;53.482;10.294;2023-07-31T07:22:44;4.38;;;0.98;;
63900;SDS011;50538;53.482;10.294;2023-07-31T07:32:45;1.10;;;0.80;;
63900;SDS011;50538;53.482;10.294;2023-07-31T07:42:45;0.77;;;0.57;;
63900;SDS011;50538;53.482;10.294;2023-07-31T07:52:46;1.95;;;1.08;;
63900;SDS011;50538;53.482;10.294;2023-07-31T08:02:46;1.15;;;0.70;;
63900;SDS011;50538;53.482;10.294;2023-07-31T08:12:47;1.08;;;0.60;;
63900;SDS011;50538;53.482;10.294;2023-07-31T08:22:47;0.57;;;0.40;;
63900;SDS011;50538;53.482;10.294;2023-07-31T08:32:48;0.75;;;0.47;;
63900;SDS011;50538;53.482;10.294;2023-07-31T08:42:50;0.65;;;0.50;;
63900;SDS011;50538;53.482;10.294;2023-07-31T08:52:54;0.20;;;0.20;;
63900;SDS011;50538;53.482;10.294;2023-07-31T09:02:59;0.68;;;0.22;;
63900;SDS011;50538;53.482;10.294;2023-07-31T09:13:04;0.38;;;0.30;;
63900;SDS011;50538;53.482;10.294;2023-07-31T09:23:10;0.40;;;0.20;;
63900;SDS011;50538;53.482;10.294;2023-07-31T09:33:12;0.50;;;0.22;;
63900;SDS011;50538;53.482;10.294;2023-07-31T09:43:13;0.55;;;0.20;;
63900;SDS011;50538;53.482;10.294;2023-07-31T09:53:18;0.05;;;0.05;;
63900;SDS011;50538;53.482;10.294;2023-07-31T10:03:18;0.52;;;0.13;;
63900;SDS011;50538;53.482;10.294;2023-07-31T10:13:19;0.35;;;0.28;;
63900;SDS011;50538;53.482;10.294;2023-07-31T10:23:22;3.70;;;1.15;;
63900;SDS011;50538;53.482;10.294;2023-07-31T10:33:25;4.80;;;1.52;;
63900;SDS011;50538;53.482;10.294;2023-07-31T10:43:25;6.82;;;1.90;;
63900;SDS011;50538;53.482;10.294;2023-07-31T11:03:47;5.63;;;2.28;;
63900;SDS011;50538;53.482;10.294;2023-07-31T11:13:49;5.10;;;2.08;;
63900;SDS011;50538;53.482;10.294;2023-07-31T11:23:57;9.60;;;2.38;;
63900;SDS011;50538;53.482;10.294;2023-07-31T11:34:04;9.43;;;1.88;;
63900;SDS011;50538;53.482;10.294;2023-07-31T11:44:05;3.75;;;1.27;;
63900;SDS011;50538;53.482;10.294;2023-07-31T11:54:05;2.15;;;1.20;;
63900;SDS011;50538;53.482;10.294;2023-07-31T12:04:06;1.73;;;1.10;;
63900;SDS011;50538;53.482;10.294;2023-07-31T12:14:07;2.13;;;0.82;;
63900;SDS011;50538;53.482;10.294;2023-07-31T12:24:09;4.35;;;0.75;;
63900;SDS011;50538;53.482;10.294;2023-07-31T12:34:16;1.17;;;0.80;;
63900;SDS011;50538;53.482;10.294;2023-07-31T12:44:18;1.40;;;0.73;;
63900;SDS011;50538;53.482;10.294;2023-07-31T12:54:18;1.60;;;0.70;;
63900;SDS011;50538;53.482;10.294;2023-07-31T13:04:19;0.88;;;0.73;;
63900;SDS011;50538;53.482;10.294;2023-07-31T13:14:19;1.45;;;0.60;;
63900;SDS011;50538;53.482;10.294;2023-07-31T13:24:19;1.00;;;0.70;;
63900;SDS011;50538;53.482;10.294;2023-07-31T13:34:20;1.40;;;0.52;;
63900;SDS011;50538;53.482;10.294;2023-07-31T13:44:20;0.20;;;0.20;;
63900;SDS011;50538;53.482;10.294;2023-07-31T13:54:20;1.05;;;0.40;;
63900;SDS011;50538;53.482;10.294;2023-07-31T14:04:22;0.95;;;0.57;;
63900;SDS011;50538;53.482;10.294;2023-07-31T14:14:22;0.65;;;0.50;;
63900;SDS011;50538;53.482;10.294;2023-07-31T14:24:22;0.30;;;0.30;;
63900;SDS011;50538;53.482;10.294;2023-07-31T14:34:23;0.50;;;0.50;;
63900;SDS011;50538;53.482;10.294;2023-07-31T14:44:23;0.65;;;0.40;;
63900;SDS011;50538;53.482;10.294;2023-07-31T14:54:23;1.80;;;0.73;;
63900;SDS011;50538;53.482;10.294;2023-07-31T15:04:24;1.13;;;0.77;;
63900;SDS011;50538;53.482;10.294;2023-07-31T15:14:24;2.10;;;0.90;;
63900;SDS011;50538;53.482;10.294;2023-07-31T15:24:27;2.45;;;1.10;;
63900;SDS011;50538;53.482;10.294;2023-07-31T15:34:27;2.00;;;1.05;;
63900;SDS011;50538;53.482;10.294;2023-07-31T15:44:28;1.67;;;1.05;;
63900;SDS011;50538;53.482;10.294;2023-07-31T15:54:28;2.55;;;1.25;;
63900;SDS011;50538;53.482;10.294;2023-07-31T16:04:28;3.28;;;1.63;;
63900;SDS011;50538;53.482;10.294;2023-07-31T16:14:29;2.20;;;1.40;;
63900;SDS011;50538;53.482;10.294;2023-07-31T16:24:29;3.40;;;1.63;;
63900;SDS011;50538;53.482;10.294;2023-07-31T16:34:29;3.75;;;1.63;;
63900;SDS011;50538;53.482;10.294;2023-07-31T16:44:30;2.35;;;1.30;;
63900;SDS011;50538;53.482;10.294;2023-07-31T16:54:30;2.30;;;1.30;;
63900;SDS011;50538;53.482;10.294;2023-07-31T17:04:32;2.65;;;1.33;;
63900;SDS011;50538;53.482;10.294;2023-07-31T17:14:32;2.97;;;1.30;;
63900;SDS011;50538;53.482;10.294;2023-07-31T17:24:35;2.20;;;1.20;;
63900;SDS011;50538;53.482;10.294;2023-07-31T17:34:36;4.13;;;1.30;;
63900;SDS011;50538;53.482;10.294;2023-07-31T17:44:37;3.72;;;1.25;;
63900;SDS011;50538;53.482;10.294;2023-07-31T17:54:37;4.75;;;1.55;;
63900;SDS011;50538;53.482;10.294;2023-07-31T18:04:37;2.28;;;1.17;;
63900;SDS011;50538;53.482;10.294;2023-07-31T18:14:38;3.00;;;0.98;;
63900;SDS011;50538;53.482;10.294;2023-07-31T18:24:39;2.28;;;1.10;;
63900;SDS011;50538;53.482;10.294;2023-07-31T18:34:40;4.50;;;1.10;;
63900;SDS011;50538;53.482;10.294;2023-07-31T18:44:40;1.85;;;1.17;;
63900;SDS011;50538;53.482;10.294;2023-07-31T18:54:40;3.13;;;1.20;;
63900;SDS011;50538;53.482;10.294;2023-07-31T19:04:41;1.98;;;1.15;;
63900;SDS011;50538;53.482;10.294;2023-07-31T19:14:41;2.35;;;1.20;;
63900;SDS011;50538;53.482;10.294;2023-07-31T19:24:42;4.55;;;1.50;;
63900;SDS011;50538;53.482;10.294;2023-07-31T19:34:43;3.22;;;1.67;;
63900;SDS011;50538;53.482;10.294;2023-07-31T19:44:43;7.07;;;1.27;;
63900;SDS011;50538;53.482;10.294;2023-07-31T19:54:43;2.80;;;1.40;;
63900;SDS011;50538;53.482;10.294;2023-07-31T20:04:44;3.63;;;1.65;;
63900;SDS011;50538;53.482;10.294;2023-07-31T20:14:44;2.85;;;1.50;;
63900;SDS011;50538;53.482;10.294;2023-07-31T20:24:44;4.28;;;2.13;;
63900;SDS011;50538;53.482;10.294;2023-07-31T20:34:45;2.70;;;1.50;;
63900;SDS011;50538;53.482;10.294;2023-07-31T20:44:45;3.42;;;1.77;;
63900;SDS011;50538;53.482;10.294;2023-07-31T20:54:45;2.05;;;1.40;;
63900;SDS011;50538;53.482;10.294;2023-07-31T21:04:46;3.60;;;1.23;;
63900;SDS011;50538;53.482;10.294;2023-07-31T21:14:46;1.52;;;1.05;;
63900;SDS011;50538;53.482;10.294;2023-07-31T21:24:47;1.30;;;0.77;;
63900;SDS011;50538;53.482;10.294;2023-07-31T21:34:47;1.10;;;0.70;;
63900;SDS011;50538;53.482;10.294;2023-07-31T21:44:47;0.80;;;0.50;;
63900;SDS011;50538;53.482;10.294;2023-07-31T21:54:48;1.30;;;0.30;;
63900;SDS011;50538;53.482;10.294;2023-07-31T22:04:48;0.65;;;0.40;;
63900;SDS011;50538;53.482;10.294;2023-07-31T22:14:48;2.35;;;0.45;;
63900;SDS011;50538;53.482;10.294;2023-07-31T22:24:49;0.77;;;0.60;;
63900;SDS011;50538;53.482;10.294;2023-07-31T22:34:49;3.40;;;0.90;;
63900;SDS011;50538;53.482;10.294;2023-07-31T22:44:49;1.42;;;0.88;;
63900;SDS011;50538;53.482;10.294;2023-07-31T22:54:50;1.77;;;0.90;;
63900;SDS011;50538;53.482;10.294;2023-07-31T23:04:50;2.40;;;1.20;;
63900;SDS011;50538;53.482;10.294;2023-07-31T23:14:53;1.70;;;0.70;;
63900;SDS011;50538;53.482;10.294;2023-07-31T23:24:53;1.77;;;1.00;;
63900;SDS011;50538;53.482;10.294;2023-07-31T23:34:53;2.20;;;1.15;;
63900;SDS011;50538;53.482;10.294;2023-07-31T23:44:54;1.10;;;0.60;;
63900;SDS011;50538;53.482;10.294;2023-07-31T23:54:54;0.95;;;0.60;;
